createdAt,value
2019-05-20T00:01:25.172Z,50.88
2019-05-20T00:03:53.901Z,50.06
2019-05-20T00:06:22.601Z,50.03
2019-05-20T00:08:51.225Z,49.59
2019-05-20T00:11:19.891Z,49.82
2019-05-20T00:13:48.525Z,50.40
2019-05-20T00:16:17.229Z,50.76
2019-05-20T00:18:45.954Z,49.41
2019-05-20T00:21:14.670Z,49.38
2019-05-20T00:23:43.371Z,49.55
2019-05-20T00:26:12.101Z,49.13
2019-05-20T00:28:40.790Z,49.34
2019-05-20T00:31:09.486Z,49.44
2019-05-20T00:33:38.229Z,49.51
2019-05-20T00:36:06.860Z,49.13
2019-05-20T00:38:36.414Z,49.27
2019-05-20T00:41:05.148Z,49.00
2019-05-20T00:43:33.865Z,49.49
2019-05-20T00:46:02.559Z,51.71
2019-05-20T00:48:31.297Z,50.60
2019-05-20T00:50:59.992Z,49.46
2019-05-20T00:53:28.700Z,49.52
2019-05-20T00:55:57.439Z,50.47
2019-05-20T00:58:26.131Z,49.55
2019-05-20T01:00:56.285Z,49.06
2019-05-20T01:03:25.011Z,49.37
2019-05-20T01:05:53.721Z,50.04
2019-05-20T01:08:22.396Z,48.65
2019-05-20T01:10:51.137Z,48.79
2019-05-20T01:13:20.029Z,49.57
2019-05-20T01:15:48.651Z,48.14
2019-05-20T01:18:17.407Z,49.08
2019-05-20T01:20:46.407Z,50.89
2019-05-20T01:23:15.096Z,49.71
2019-05-20T01:25:43.834Z,48.93
2019-05-20T01:28:12.550Z,48.75
2019-05-20T01:30:41.248Z,49.58
2019-05-20T01:33:14.175Z,49.77
2019-05-20T01:36:09.853Z,49.12
2019-05-20T01:38:38.582Z,48.87
2019-05-20T01:41:08.113Z,49.20
2019-05-20T01:43:36.813Z,49.70
2019-05-20T01:46:05.565Z,49.29
2019-05-20T01:48:34.247Z,49.77
2019-05-20T01:51:02.939Z,48.77
2019-05-20T01:53:31.666Z,48.79
2019-05-20T01:56:00.359Z,47.79
2019-05-20T01:58:29.058Z,48.39
2019-05-20T02:00:57.778Z,49.58
2019-05-20T02:05:56.746Z,51.32
2019-05-20T02:08:25.463Z,50.33
2019-05-20T02:08:53.779Z,49.71
2019-05-20T02:10:56.598Z,51.10
2019-05-20T02:13:26.082Z,52.18
2019-05-20T02:15:56.385Z,53.70
2019-05-20T02:18:25.116Z,52.81
2019-05-20T02:20:53.815Z,53.83
2019-05-20T02:23:22.542Z,52.04
2019-05-20T02:25:51.241Z,50.85
2019-05-20T02:28:19.943Z,51.15
2019-05-20T02:30:48.605Z,50.23
2019-05-20T02:33:17.313Z,49.08
2019-05-20T02:35:46.004Z,49.16
2019-05-20T02:38:16.107Z,48.91
2019-05-20T02:40:44.792Z,49.16
2019-05-20T02:43:14.319Z,48.66
2019-05-20T02:45:43.043Z,48.11
2019-05-20T02:48:11.737Z,49.35
2019-05-20T02:50:40.487Z,47.70
2019-05-20T02:53:09.161Z,48.51
2019-05-20T02:55:37.852Z,48.42
2019-05-20T02:58:06.533Z,49.42
2019-05-20T03:00:35.306Z,49.47
2019-05-20T03:03:03.964Z,49.04
2019-05-20T03:05:32.677Z,48.56
2019-05-20T03:08:01.401Z,49.49
2019-05-20T03:10:30.099Z,49.24
2019-05-20T03:12:58.717Z,49.22
2019-05-20T03:15:27.381Z,48.34
2019-05-20T03:17:56.081Z,49.04
2019-05-20T03:20:24.691Z,49.21
2019-05-20T03:22:53.357Z,49.16
2019-05-20T03:25:22.043Z,49.00
2019-05-20T03:27:50.741Z,48.67
2019-05-20T03:30:19.476Z,48.93
2019-05-20T03:32:48.177Z,49.05
2019-05-20T03:35:16.807Z,49.19
2019-05-20T03:37:45.533Z,49.61
2019-05-20T03:40:14.329Z,48.49
2019-05-20T03:42:43.020Z,48.02
2019-05-20T03:45:13.014Z,48.06
2019-05-20T03:47:41.814Z,47.00
2019-05-20T03:50:10.592Z,47.35
2019-05-20T03:52:39.325Z,46.97
2019-05-20T03:55:08.063Z,47.83
2019-05-20T03:57:36.951Z,49.38
2019-05-20T04:00:06.939Z,48.45
2019-05-20T04:02:35.642Z,48.11
2019-05-20T04:05:04.768Z,48.09
2019-05-20T04:07:33.485Z,48.08
2019-05-20T04:10:02.176Z,47.75
2019-05-20T04:12:30.802Z,47.83
2019-05-20T04:14:59.455Z,47.91
2019-05-20T04:17:28.154Z,48.36
2019-05-20T04:19:56.855Z,50.98
2019-05-20T04:22:25.504Z,50.16
2019-05-20T04:24:54.200Z,52.51
2019-05-20T04:27:22.902Z,53.23
2019-05-20T04:29:51.637Z,50.39
2019-05-20T04:32:20.336Z,49.50
2019-05-20T04:34:48.965Z,47.96
2019-05-20T04:37:17.700Z,51.17
2019-05-20T04:39:46.392Z,52.37
2019-05-20T04:42:15.092Z,51.80
2019-05-20T04:44:43.816Z,50.29
2019-05-20T04:47:12.836Z,49.65
2019-05-20T04:49:41.467Z,50.20
2019-05-20T04:52:10.145Z,50.08
2019-05-20T04:54:38.838Z,50.93
2019-05-20T04:57:07.527Z,51.47
2019-05-20T07:11:57.799Z,38.92
2019-05-20T07:14:26.415Z,38.79
2019-05-20T07:16:55.109Z,40.24
2019-05-20T07:19:23.784Z,40.78
2019-05-20T07:21:52.411Z,40.29
2019-05-20T07:24:21.107Z,39.48
2019-05-20T07:26:49.765Z,40.36
2019-05-20T07:29:19.336Z,39.59
2019-05-20T07:31:48.127Z,37.81
2019-05-20T07:34:17.139Z,37.47
2019-05-20T07:37:01.953Z,39.01
2019-05-20T07:39:16.394Z,38.51
2019-05-20T07:41:45.123Z,38.03
2019-05-20T07:44:13.824Z,38.59
2019-05-20T07:46:42.618Z,39.83
2019-05-20T07:49:12.109Z,41.55
2019-05-20T07:51:41.757Z,40.59
2019-05-20T07:54:11.361Z,40.39
2019-05-20T07:56:42.991Z,41.31
2019-05-20T07:59:14.589Z,41.56
2019-05-20T08:01:43.273Z,42.03
2019-05-20T08:04:12.319Z,42.02
2019-05-20T08:06:41.035Z,40.44
2019-05-20T08:09:09.824Z,39.33
2019-05-20T08:11:38.563Z,38.54
2019-05-20T08:14:07.270Z,35.54
2019-05-20T08:16:35.963Z,37.03
2019-05-20T08:19:04.906Z,37.29
2019-05-20T08:21:33.536Z,36.89
2019-05-20T08:24:02.604Z,37.16
2019-05-20T08:26:31.418Z,36.81
2019-05-20T08:29:00.104Z,38.23
2019-05-20T08:31:28.814Z,38.55
2019-05-20T08:33:57.645Z,36.86
2019-05-20T08:36:26.357Z,39.57
2019-05-20T08:38:55.055Z,39.54
2019-05-20T08:41:23.857Z,38.39
2019-05-20T08:43:52.491Z,37.34
2019-05-20T08:46:21.183Z,35.53
2019-05-20T08:48:49.921Z,37.87
2019-05-20T08:51:18.618Z,37.63
2019-05-20T08:53:47.306Z,39.22
2019-05-20T08:56:16.091Z,37.85
2019-05-20T08:58:44.679Z,37.02
2019-05-20T09:01:13.390Z,38.71
2019-05-20T09:03:42.039Z,38.63
2019-05-20T09:06:10.803Z,37.80
2019-05-20T09:08:39.511Z,35.86
2019-05-20T09:11:08.168Z,36.02
2019-05-20T09:13:36.878Z,35.73
2019-05-20T09:16:06.314Z,35.42
2019-05-20T09:18:34.980Z,34.36
2019-05-20T09:21:03.697Z,34.37
2019-05-20T09:23:32.567Z,36.23
2019-05-20T09:26:01.279Z,36.66
2019-05-20T09:28:29.934Z,36.25
2019-05-20T09:30:58.626Z,35.68
2019-05-20T09:33:27.358Z,35.07
2019-05-20T09:35:56.229Z,35.03
2019-05-20T09:38:24.913Z,35.28
2019-05-20T09:40:53.714Z,34.57
2019-05-20T09:43:22.537Z,35.04
2019-05-20T09:46:05.511Z,36.77
2019-05-20T09:48:25.021Z,37.22
2019-05-20T09:50:52.820Z,36.01
2019-05-20T09:53:21.499Z,37.23
2019-05-20T09:55:52.269Z,37.03
2019-05-20T09:58:20.965Z,37.11
2019-05-20T10:00:49.664Z,37.83
2019-05-20T10:03:18.391Z,37.00
2019-05-20T10:05:47.081Z,37.61
2019-05-20T10:08:15.774Z,37.02
2019-05-20T10:10:44.505Z,37.27
2019-05-20T10:13:13.231Z,37.50
2019-05-20T10:15:41.839Z,35.80
2019-05-20T10:18:10.570Z,36.47
2019-05-20T10:20:39.258Z,37.69
2019-05-20T10:23:07.978Z,37.48
2019-05-20T10:25:36.748Z,37.70
2019-05-20T10:28:05.493Z,39.29
2019-05-20T10:30:34.823Z,37.76
2019-05-20T10:33:03.564Z,37.12
2019-05-20T10:35:32.264Z,39.72
2019-05-20T10:38:00.905Z,38.95
2019-05-20T10:40:29.694Z,40.97
2019-05-20T10:42:58.455Z,43.31
2019-05-20T10:45:27.139Z,45.42
2019-05-20T10:47:55.868Z,49.96
2019-05-20T10:50:24.567Z,48.93
2019-05-20T10:52:53.266Z,49.53
2019-05-20T10:55:21.995Z,49.40
2019-05-20T10:57:50.702Z,50.33
2019-05-20T11:00:19.895Z,52.37
2019-05-20T11:02:48.628Z,51.11
2019-05-20T11:05:19.054Z,50.63
2019-05-20T11:07:47.747Z,52.63
2019-05-20T11:10:16.674Z,53.18
2019-05-20T11:12:45.434Z,51.84
2019-05-20T11:15:14.430Z,49.05
2019-05-20T11:17:43.180Z,47.18
2019-05-20T11:20:11.899Z,46.58
2019-05-20T11:22:40.509Z,49.09
2019-05-20T11:25:09.469Z,48.24
2019-05-20T11:27:39.169Z,45.47
2019-05-20T11:30:10.142Z,45.02
2019-05-20T11:32:38.866Z,44.73
2019-05-20T11:35:08.354Z,45.61
2019-05-20T11:37:37.051Z,47.38
2019-05-20T11:40:08.163Z,48.21
2019-05-20T11:42:37.299Z,50.36
2019-05-20T11:45:11.564Z,51.18
2019-05-20T11:47:40.276Z,51.59
2019-05-20T11:50:09.874Z,52.98
2019-05-20T11:52:38.672Z,53.17
2019-05-20T11:55:08.231Z,52.52
2019-05-20T11:57:36.900Z,51.10
2019-05-20T12:00:09.704Z,51.48
2019-05-20T12:02:38.423Z,49.87
2019-05-20T12:05:07.822Z,52.17
2019-05-20T12:07:36.446Z,52.78
2019-05-20T12:10:09.367Z,52.64
2019-05-20T12:12:38.000Z,53.86
2019-05-20T12:15:08.472Z,53.74
2019-05-20T12:17:37.290Z,55.27
2019-05-20T12:20:12.223Z,55.17
2019-05-20T12:22:41.106Z,55.19
2019-05-20T12:25:10.534Z,54.32
2019-05-20T12:27:39.150Z,53.66
2019-05-20T12:30:09.611Z,49.08
2019-05-20T12:32:38.306Z,49.34
2019-05-20T12:35:08.813Z,54.88
2019-05-20T12:37:37.496Z,57.00
2019-05-20T12:40:08.510Z,60.89
2019-05-20T12:42:37.510Z,59.70
2019-05-20T12:45:08.119Z,60.63
2019-05-20T12:47:36.852Z,59.46
2019-05-20T12:50:07.534Z,59.80
2019-05-20T12:52:36.232Z,61.07
2019-05-20T12:55:09.230Z,59.99
2019-05-20T12:57:36.890Z,62.76
2019-05-20T13:00:08.649Z,61.47
2019-05-20T13:02:37.385Z,64.73
2019-05-20T13:05:07.482Z,62.73
2019-05-20T13:07:36.212Z,61.01
2019-05-20T13:10:26.728Z,60.46
2019-05-20T13:12:38.310Z,63.10
2019-05-20T13:15:08.025Z,64.67
2019-05-20T13:17:36.762Z,64.00
2019-05-20T13:20:06.276Z,64.44
2019-05-20T13:22:34.910Z,65.97
2019-05-20T13:25:04.245Z,66.23
2019-05-20T13:27:32.939Z,66.40
2019-05-20T13:30:01.666Z,65.15
2019-05-20T13:32:30.376Z,63.69
2019-05-20T13:34:59.078Z,64.93
2019-05-20T13:37:27.773Z,62.18
2019-05-20T13:39:56.507Z,62.75
2019-05-20T13:42:25.207Z,60.95
2019-05-20T13:44:53.897Z,59.71
2019-05-20T13:47:22.657Z,59.38
2019-05-20T13:49:51.846Z,59.30
2019-05-20T13:52:20.547Z,58.01
2019-05-20T13:54:49.313Z,58.21
2019-05-20T13:57:17.984Z,57.04
2019-05-20T13:59:48.243Z,57.36
2019-05-20T14:02:16.969Z,52.58
2019-05-20T14:04:45.668Z,50.88
2019-05-20T14:07:14.287Z,52.21
2019-05-20T14:09:43.056Z,50.85
2019-05-20T14:12:11.714Z,49.31
2019-05-20T14:14:40.410Z,48.75
2019-05-20T14:17:09.134Z,47.16
2019-05-20T14:19:37.840Z,51.72
2019-05-20T14:22:06.527Z,48.91
2019-05-20T14:24:35.993Z,47.20
2019-05-20T14:27:04.757Z,45.74
2019-05-20T14:29:33.465Z,47.36
2019-05-20T14:32:02.953Z,52.33
2019-05-20T14:34:31.977Z,47.86
2019-05-20T14:37:00.685Z,47.56
2019-05-20T14:39:29.466Z,46.92
2019-05-20T14:41:58.076Z,47.67
2019-05-20T14:44:26.810Z,48.33
2019-05-20T14:46:55.541Z,50.37
2019-05-20T14:49:24.234Z,50.09
2019-05-20T14:51:52.939Z,50.32
2019-05-20T14:54:21.670Z,50.52
2019-05-20T14:56:50.370Z,51.54
2019-05-20T14:59:19.065Z,52.90
2019-05-20T15:01:47.783Z,54.50
2019-05-20T15:04:16.488Z,53.70
2019-05-20T15:06:45.178Z,52.64
2019-05-20T15:09:13.923Z,54.61
2019-05-20T15:11:42.628Z,54.71
2019-05-20T15:14:11.329Z,53.37
2019-05-20T15:16:40.078Z,53.38
2019-05-20T15:19:08.779Z,54.18
2019-05-20T15:21:37.475Z,53.46
2019-05-20T15:24:06.230Z,51.44
2019-05-20T15:26:34.913Z,49.57
2019-05-20T15:29:04.443Z,50.90
2019-05-20T15:31:33.491Z,50.26
2019-05-20T15:34:02.190Z,50.06
2019-05-20T15:36:30.878Z,47.77
2019-05-20T15:38:59.616Z,46.25
2019-05-20T15:41:28.310Z,47.65
2019-05-20T15:43:57.008Z,47.84
2019-05-20T15:46:25.740Z,47.63
2019-05-20T15:48:54.434Z,47.78
2019-05-20T15:51:23.136Z,47.72
2019-05-20T15:53:51.860Z,47.95
2019-05-20T15:56:20.556Z,47.59
2019-05-20T15:58:49.264Z,49.99
2019-05-20T16:01:18.000Z,51.24
2019-05-20T16:03:50.976Z,52.22
2019-05-20T16:06:17.112Z,50.94
2019-05-20T16:08:45.859Z,49.90
2019-05-20T16:11:14.572Z,50.55
2019-05-20T16:13:43.264Z,51.12
2019-05-20T16:16:13.071Z,50.28
2019-05-20T16:18:42.001Z,49.14
2019-05-20T16:21:10.700Z,48.90
2019-05-20T16:23:39.437Z,49.56
2019-05-20T16:26:08.122Z,49.19
2019-05-20T16:28:37.589Z,48.61
2019-05-20T16:31:06.336Z,49.48
2019-05-20T16:33:35.027Z,53.57
2019-05-20T16:36:03.727Z,54.51
2019-05-20T16:38:32.476Z,52.86
2019-05-20T16:41:01.098Z,49.86
2019-05-20T16:43:29.792Z,50.29
2019-05-20T16:45:58.606Z,48.66
2019-05-20T16:48:27.297Z,50.08
2019-05-20T16:50:55.939Z,49.25
2019-05-20T16:53:24.671Z,50.89
2019-05-20T16:55:53.367Z,51.63
2019-05-20T16:58:22.073Z,51.43
2019-05-20T17:00:50.808Z,53.19
2019-05-20T17:03:19.507Z,49.94
2019-05-20T17:05:48.192Z,49.55
2019-05-20T17:08:16.926Z,49.41
2019-05-20T17:10:45.620Z,49.95
2019-05-20T17:13:14.323Z,51.45
2019-05-20T17:15:43.039Z,49.58
2019-05-20T17:18:12.042Z,53.71
2019-05-20T17:20:40.746Z,54.10
2019-05-20T17:23:09.465Z,56.70
2019-05-20T17:25:38.261Z,57.42
2019-05-20T17:28:07.031Z,54.80
2019-05-20T17:30:44.851Z,54.76
2019-05-20T17:33:06.185Z,53.55
2019-05-20T17:35:34.879Z,52.56
2019-05-20T17:38:03.615Z,54.69
2019-05-20T17:40:32.490Z,54.23
2019-05-20T17:43:01.182Z,57.95
2019-05-20T17:45:29.922Z,55.97
2019-05-20T17:47:58.611Z,56.84
2019-05-20T17:50:27.310Z,58.99
2019-05-20T17:52:56.055Z,56.95
2019-05-20T17:55:24.850Z,58.30
2019-05-20T17:57:55.250Z,56.26
2019-05-20T18:00:24.190Z,57.13
2019-05-20T18:02:52.887Z,56.76
2019-05-20T18:05:21.583Z,55.32
2019-05-20T18:07:50.334Z,54.89
2019-05-20T18:10:20.716Z,54.86
2019-05-20T18:12:49.400Z,55.30
2019-05-20T18:15:18.444Z,55.57
2019-05-20T18:17:47.151Z,55.47
2019-05-20T18:20:16.036Z,55.79
2019-05-20T18:22:44.775Z,55.39
2019-05-20T18:25:13.578Z,56.97
2019-05-20T18:27:42.266Z,59.60
2019-05-20T18:30:12.623Z,59.49
2019-05-20T18:32:41.318Z,59.04
2019-05-20T18:35:10.023Z,56.94
2019-05-20T18:37:39.065Z,61.19
2019-05-20T18:40:14.038Z,59.04
2019-05-20T18:42:38.463Z,58.44
2019-05-20T18:45:07.780Z,58.36
2019-05-20T18:47:36.492Z,59.88
2019-05-20T18:50:09.182Z,60.50
2019-05-20T18:52:38.075Z,58.59
2019-05-20T18:55:07.406Z,58.73
2019-05-20T19:35:30.175Z,52.80
2019-05-20T19:37:58.887Z,55.41
2019-05-20T19:40:27.587Z,56.67
2019-05-20T19:42:56.333Z,58.79
2019-05-20T19:45:25.054Z,58.04
2019-05-20T19:47:53.751Z,58.92
2019-05-20T19:50:22.506Z,57.48
2019-05-20T19:52:51.260Z,57.28
2019-05-20T19:55:19.992Z,56.68
2019-05-20T19:57:49.257Z,55.99
2019-05-20T20:00:20.085Z,56.04
2019-05-20T20:02:49.266Z,57.19
2019-05-20T20:05:18.078Z,57.24
2019-05-20T20:07:46.770Z,56.83
2019-05-20T20:10:15.758Z,56.10
2019-05-20T20:12:44.420Z,59.99
2019-05-20T20:15:19.887Z,57.92
2019-05-20T20:17:48.588Z,58.14
2019-05-20T20:20:17.322Z,59.16
2019-05-20T20:22:46.007Z,58.01
2019-05-20T20:25:14.827Z,57.00
2019-05-20T20:27:43.566Z,56.00
2019-05-20T20:30:12.389Z,58.32
2019-05-20T20:32:41.075Z,57.38
2019-05-20T20:35:10.180Z,56.06
2019-05-20T20:37:38.890Z,57.78
2019-05-20T20:40:07.702Z,56.98
2019-05-20T20:42:36.434Z,56.10
2019-05-20T20:45:06.128Z,57.22
2019-05-20T20:47:41.954Z,57.88
2019-05-20T20:50:08.019Z,57.54
2019-05-20T20:52:36.711Z,58.30
2019-05-20T20:55:06.909Z,57.35
2019-05-20T20:57:35.828Z,56.46
2019-05-20T21:00:07.461Z,56.71
2019-05-20T21:02:36.154Z,56.06
2019-05-20T21:05:05.919Z,55.82
2019-05-20T21:07:34.624Z,56.40
2019-05-20T21:10:03.844Z,58.33
2019-05-20T21:12:32.552Z,58.27
2019-05-20T21:15:01.283Z,57.68
2019-05-20T21:17:30.032Z,57.63
2019-05-20T21:19:58.755Z,56.78
2019-05-20T21:22:27.439Z,55.69
2019-05-20T21:24:56.133Z,55.34
2019-05-20T21:27:24.892Z,55.08
2019-05-20T21:29:53.587Z,54.45
2019-05-20T21:32:22.281Z,54.91
2019-05-20T21:34:51.024Z,56.85
2019-05-20T21:37:19.717Z,57.20
2019-05-20T21:39:48.403Z,59.26
2019-05-20T21:42:17.056Z,58.78
2019-05-20T21:44:45.766Z,59.45
2019-05-20T21:47:14.450Z,61.68
2019-05-20T21:49:43.199Z,58.98
2019-05-20T21:52:11.896Z,58.62
2019-05-20T21:54:40.616Z,60.50
2019-05-20T21:57:09.359Z,59.66
2019-05-20T21:59:38.038Z,60.05
2019-05-20T22:02:06.741Z,58.63
2019-05-20T22:04:35.454Z,58.95
2019-05-20T22:07:04.181Z,60.29
2019-05-20T22:09:32.798Z,59.41
2019-05-20T22:12:01.518Z,59.13
2019-05-20T22:14:30.262Z,57.86
2019-05-20T22:16:58.933Z,57.45
2019-05-20T22:19:27.659Z,58.60
2019-05-20T22:21:57.919Z,58.08
2019-05-20T22:24:26.611Z,58.35
2019-05-20T22:26:55.340Z,60.18
2019-05-20T22:29:24.111Z,59.76
2019-05-20T22:31:52.806Z,59.17
2019-05-20T22:34:21.533Z,58.01
2019-05-20T22:36:51.092Z,58.27
2019-05-20T22:39:19.782Z,60.06
2019-05-20T22:41:48.523Z,59.56
2019-05-20T22:44:17.213Z,57.98
2019-05-20T22:46:45.835Z,61.63
2019-05-20T22:49:14.569Z,63.39
2019-05-20T22:51:43.178Z,61.14
2019-05-20T22:54:11.860Z,61.12
2019-05-20T22:56:40.569Z,59.76
2019-05-20T22:59:09.250Z,57.90
2019-05-20T23:01:37.951Z,57.24
2019-05-20T23:04:06.603Z,58.38
2019-05-20T23:06:35.303Z,59.54
2019-05-20T23:09:05.808Z,59.05
2019-05-20T23:11:34.471Z,58.44
2019-05-20T23:14:03.175Z,57.90
2019-05-20T23:16:31.949Z,59.75
2019-05-20T23:19:00.674Z,59.76
2019-05-20T23:21:29.377Z,59.84
2019-05-20T23:23:58.066Z,59.66
2019-05-20T23:26:26.786Z,60.87
2019-05-20T23:28:55.456Z,64.54
2019-05-20T23:31:24.185Z,63.94
2019-05-20T23:33:52.861Z,64.13
2019-05-20T23:36:21.567Z,62.40
2019-05-20T23:38:50.258Z,63.83
2019-05-20T23:41:19.501Z,64.19
2019-05-20T23:43:48.909Z,62.60
2019-05-20T23:46:17.577Z,61.49
2019-05-20T23:48:46.307Z,61.46
2019-05-20T23:51:14.996Z,61.98
2019-05-20T23:53:43.673Z,61.60
2019-05-20T23:56:12.502Z,61.19
2019-05-20T23:58:41.196Z,62.66
